Time;durP1;ratioP1;P1;durP2;ratioP2;P2;SDS_P1;SDS_P2;PMS_P1;PMS_P2;Temp;Humidity;BMP_temperature;BMP_pressure;BME280_temperature;BME280_humidity;BME280_pressure;Samples;Min_cycle;Max_cycle;Signal;HPM_P1;HPM_P2
2022/01/03 00:01:48;;;;;;;0.00;0.00;;;;;;;8.91;100.00;99783.31;5070533;28;20181;-75
2022/01/03 00:04:15;;;;;;;0.10;0.10;;;;;;;8.94;100.00;99785.41;5070866;28;20300;-74
2022/01/03 00:06:41;;;;;;;0.10;0.10;;;;;;;9.00;100.00;99783.34;5070541;28;20173;-75
2022/01/03 00:09:07;;;;;;;0.50;0.50;;;;;;;9.11;100.00;99790.13;5070582;28;20179;-74
2022/01/03 00:11:35;;;;;;;0.27;0.27;;;;;;;9.15;100.00;99782.09;5070798;28;20171;-74
2022/01/03 00:14:00;;;;;;;0.30;0.30;;;;;;;9.18;100.00;99784.19;5069248;28;20210;-75
2022/01/03 00:16:26;;;;;;;0.27;0.27;;;;;;;9.34;100.00;99776.34;5070542;28;20317;-74
2022/01/03 00:18:52;;;;;;;0.60;0.60;;;;;;;9.39;100.00;99778.91;5070725;28;20163;-74
2022/01/03 00:21:19;;;;;;;0.43;0.43;;;;;;;9.49;100.00;99793.03;5070698;28;20642;-74
2022/01/03 00:23:51;;;;;;;0.40;0.40;;;;;;;9.57;100.00;99790.66;5069254;28;20202;-74
2022/01/03 00:26:24;;;;;;;1.77;1.67;;;;;;;9.62;100.00;99794.00;5070628;28;20167;-73
2022/01/03 00:29:09;;;;;;;1.13;1.03;;;;;;;9.66;100.00;99794.16;5070575;28;20596;-74
2022/01/03 00:31:39;;;;;;;0.70;0.70;;;;;;;9.65;100.00;99815.19;5070898;28;20531;-75
2022/01/03 00:34:06;;;;;;;0.77;0.77;;;;;;;9.70;100.00;99798.66;5067886;28;20238;-75
2022/01/03 00:36:33;;;;;;;5.17;1.97;;;;;;;9.70;100.00;99806.84;5068756;28;20183;-74
2022/01/03 00:38:58;;;;;;;0.63;0.60;;;;;;;9.71;100.00;99796.75;5070323;28;20182;-74
2022/01/03 00:41:24;;;;;;;0.40;0.40;;;;;;;9.67;100.00;99796.56;5070409;28;20183;-74
2022/01/03 00:43:54;;;;;;;0.33;0.33;;;;;;;9.72;100.00;99798.34;5070567;28;20520;-75
2022/01/03 00:46:21;;;;;;;1.57;1.37;;;;;;;9.73;100.00;99800.75;5070502;28;20240;-75
2022/01/03 00:48:47;;;;;;;0.87;0.67;;;;;;;9.78;100.00;99800.56;5070398;28;20202;-75
2022/01/03 00:51:17;;;;;;;1.07;1.00;;;;;;;9.73;100.00;99811.66;5070379;28;20642;-74
2022/01/03 00:53:42;;;;;;;2.83;1.47;;;;;;;9.76;100.00;99797.38;5070547;28;20311;-74
2022/01/03 00:56:15;;;;;;;1.97;1.83;;;;;;;9.80;99.18;99798.31;5069119;28;20210;-74
2022/01/03 00:58:59;;;;;;;5.20;1.73;;;;;;;9.78;98.98;99797.84;5068890;28;20518;-75
2022/01/03 01:01:26;;;;;;;2.13;0.53;;;;;;;9.84;97.18;99790.31;5070031;28;20173;-75
2022/01/03 01:03:54;;;;;;;6.27;1.57;;;;;;;9.82;97.07;99795.28;5069003;28;20170;-74
2022/01/03 01:06:22;;;;;;;0.67;0.63;;;;;;;9.86;95.93;99803.63;5069860;28;20175;-74
2022/01/03 01:08:55;;;;;;;0.20;0.20;;;;;;;9.82;96.33;99776.19;5070009;28;20200;-75
2022/01/03 01:11:41;;;;;;;3.60;1.10;;;;;;;9.82;95.63;99809.72;5071228;28;20190;-75
2022/01/03 01:14:06;;;;;;;3.30;1.33;;;;;;;9.78;95.73;99811.50;5078218;28;20394;-74
2022/01/03 01:16:31;;;;;;;0.70;0.50;;;;;;;9.77;95.40;99809.09;5074474;28;20177;-75
2022/01/03 01:18:57;;;;;;;1.17;1.17;;;;;;;9.79;95.36;99802.19;5070275;28;20166;-75
2022/01/03 01:21:23;;;;;;;3.03;1.13;;;;;;;9.78;94.71;99813.41;5073315;28;20170;-75
2022/01/03 01:23:51;;;;;;;6.33;0.93;;;;;;;9.81;94.56;99823.69;5073600;28;20183;-75
2022/01/03 01:29:04;;;;;;;1.10;0.97;;;;;;;9.83;92.47;99818.69;5073955;28;20194;-75
2022/01/03 01:31:33;;;;;;;6.03;0.90;;;;;;;9.92;89.73;99819.50;5073764;28;20626;-75
2022/01/03 01:34:01;;;;;;;0.50;0.50;;;;;;;9.91;90.40;99823.38;5073744;28;20613;-75
2022/01/03 01:36:28;;;;;;;1.50;0.80;;;;;;;9.77;91.60;99800.91;5073398;28;20227;-75
2022/01/03 01:39:00;;;;;;;0.40;0.40;;;;;;;9.78;90.01;99818.88;5073394;28;20175;-75
2022/01/03 01:41:28;;;;;;;1.00;0.53;;;;;;;9.75;90.34;99830.44;5073380;28;20167;-75
2022/01/03 01:43:58;;;;;;;1.93;0.77;;;;;;;9.75;88.33;99820.31;5073373;28;20183;-75
2022/01/03 01:46:25;;;;;;;0.73;0.30;;;;;;;9.73;87.09;99844.41;5073430;28;20320;-74
2022/01/03 01:48:52;;;;;;;0.60;0.40;;;;;;;9.70;84.53;99806.84;5073152;28;20178;-75
2022/01/03 01:51:21;;;;;;;0.90;0.60;;;;;;;9.77;82.20;99833.63;5073175;28;20182;-75
2022/01/03 01:53:52;;;;;;;0.20;0.20;;;;;;;9.74;82.15;99813.25;5072962;28;20202;-75
2022/01/03 01:56:17;;;;;;;0.83;0.10;;;;;;;9.65;82.94;99825.28;5072800;28;20167;-75
2022/01/03 01:59:19;;;;;;;1.53;0.83;;;;;;;9.63;83.02;99839.25;5073011;28;20175;-75
2022/01/03 02:02:04;;;;;;;1.20;0.47;;;;;;;9.63;82.76;99846.63;5056675;28;20545;-75
2022/01/03 02:04:29;;;;;;;0.20;0.20;;;;;;;9.62;82.62;99854.00;5073025;28;20171;-75
2022/01/03 02:07:01;;;;;;;0.27;0.17;;;;;;;9.53;84.17;99870.34;5072679;28;20700;-75
2022/01/03 02:09:42;;;;;;;1.37;0.60;;;;;;;9.48;85.19;99847.88;5072825;28;20179;-75
2022/01/03 02:12:14;;;;;;;4.70;0.43;;;;;;;9.48;85.66;99875.16;5071505;28;20202;-75
2022/01/03 02:14:40;;;;;;;2.33;1.17;;;;;;;9.41;86.68;99874.84;5072709;28;20560;-75
2022/01/03 02:17:06;;;;;;;0.10;0.10;;;;;;;9.41;87.02;99877.56;5072551;28;20181;-75
2022/01/03 02:19:35;;;;;;;0.17;0.17;;;;;;;9.40;87.19;99903.19;5072601;28;20183;-75
2022/01/03 02:22:01;;;;;;;0.97;0.83;;;;;;;9.36;87.96;99889.41;5072568;28;20254;-74
2022/01/03 02:24:26;;;;;;;0.60;0.50;;;;;;;9.42;87.83;99893.59;5072416;28;20278;-75
2022/01/03 02:26:53;;;;;;;0.53;0.43;;;;;;;9.43;88.26;99902.59;5072296;28;20183;-75
2022/01/03 02:29:18;;;;;;;0.30;0.30;;;;;;;9.36;88.81;99903.03;5072391;28;20220;-75
2022/01/03 02:31:43;;;;;;;1.13;0.80;;;;;;;9.36;89.16;99907.69;5072426;28;20197;-75
2022/01/03 02:34:09;;;;;;;4.63;1.33;;;;;;;9.35;89.07;99920.50;5072314;28;20202;-75
2022/01/03 02:36:35;;;;;;;0.70;0.60;;;;;;;9.30;89.69;99917.13;5072140;28;20333;-75
2022/01/03 02:39:00;;;;;;;0.20;0.20;;;;;;;9.24;89.88;99895.44;5072257;28;20178;-75
2022/01/03 02:41:26;;;;;;;7.00;0.73;;;;;;;9.20;90.16;99916.28;5072119;28;20182;-75
2022/01/03 02:43:52;;;;;;;0.57;0.20;;;;;;;9.24;90.13;99919.19;5072163;28;20178;-75
2022/01/03 02:46:18;;;;;;;7.23;1.30;;;;;;;9.26;89.61;99922.41;5072101;28;20545;-75
2022/01/03 02:48:44;;;;;;;9.10;0.40;;;;;;;9.29;89.85;99932.69;5072005;28;20650;-75
2022/01/03 02:51:11;;;;;;;0.27;0.27;;;;;;;9.28;90.51;99941.19;5072015;28;20171;-75
2022/01/03 02:53:37;;;;;;;0.67;0.67;;;;;;;9.26;91.06;99927.88;5071921;28;20678;-74
2022/01/03 02:56:03;;;;;;;0.00;0.00;;;;;;;9.19;91.61;99943.84;5071728;28;20185;-75
2022/01/03 02:58:28;;;;;;;0.47;0.30;;;;;;;9.20;91.70;99915.47;5071837;28;20170;-75
2022/01/03 03:00:53;;;;;;;2.00;0.57;;;;;;;9.19;91.53;99924.78;5071336;28;20178;-74
2022/01/03 03:03:20;;;;;;;0.43;0.30;;;;;;;9.16;91.91;99919.97;5071472;28;20669;-75
2022/01/03 03:05:46;;;;;;;0.83;0.83;;;;;;;9.10;92.56;99923.94;5071498;28;20174;-74
2022/01/03 03:08:13;;;;;;;0.57;0.57;;;;;;;9.12;92.93;99941.59;5071521;28;20182;-75
2022/01/03 03:10:39;;;;;;;0.90;0.90;;;;;;;9.08;92.91;99940.59;5071588;28;20256;-75
2022/01/03 03:13:04;;;;;;;0.60;0.37;;;;;;;9.07;93.65;99938.19;5071399;28;20678;-75
2022/01/03 03:15:30;;;;;;;1.60;0.57;;;;;;;9.08;93.11;99947.97;5071285;28;20261;-75
2022/01/03 03:17:56;;;;;;;1.10;1.00;;;;;;;9.14;92.59;99950.25;5071447;28;20261;-74
2022/01/03 03:20:26;;;;;;;0.83;0.33;;;;;;;9.17;91.58;99946.09;5071332;28;20257;-75
2022/01/03 03:22:52;;;;;;;2.67;0.93;;;;;;;9.15;91.52;99948.34;5071214;28;20278;-75
2022/01/03 03:25:21;;;;;;;5.77;0.93;;;;;;;9.11;91.98;99952.78;5071129;28;20314;-75
2022/01/03 03:27:51;;;;;;;0.67;0.43;;;;;;;9.12;92.88;99951.69;5071096;28;20650;-74
2022/01/03 03:30:29;;;;;;;7.40;1.03;;;;;;;9.11;93.14;99975.41;5071177;28;20516;-75
2022/01/03 03:33:04;;;;;;;0.83;0.67;;;;;;;9.12;92.96;99977.03;5071218;28;20198;-75
2022/01/03 03:35:32;;;;;;;5.53;1.37;;;;;;;9.18;92.60;99969.50;5071078;28;20162;-75
2022/01/03 03:37:58;;;;;;;0.03;0.03;;;;;;;9.20;92.04;99954.44;5071325;28;20187;-75
2022/01/03 03:40:23;;;;;;;1.30;0.30;;;;;;;9.15;92.50;99962.78;5069740;28;20170;-75
2022/01/03 03:42:49;;;;;;;5.83;0.83;;;;;;;9.18;91.54;99969.50;5070612;28;20174;-75
2022/01/03 03:45:14;;;;;;;8.03;0.77;;;;;;;9.18;91.24;99969.50;5071372;28;20174;-75
2022/01/03 03:47:41;;;;;;;5.37;1.40;;;;;;;9.14;91.68;99960.34;5071122;28;20552;-75
2022/01/03 03:50:07;;;;;;;0.00;0.00;;;;;;;9.15;92.02;99964.69;5070879;28;20215;-75
2022/01/03 03:52:32;;;;;;;9.13;1.00;;;;;;;9.14;91.18;99954.91;5070667;28;20653;-75
2022/01/03 03:54:58;;;;;;;7.33;1.17;;;;;;;9.16;91.39;99969.03;5070696;28;20175;-75
2022/01/03 03:57:23;;;;;;;0.03;0.03;;;;;;;9.15;91.91;99962.78;5070926;28;20177;-74
2022/01/03 03:59:50;;;;;;;0.83;0.40;;;;;;;9.19;90.77;99961.00;5070701;28;20254;-75
2022/01/03 04:02:15;;;;;;;0.13;0.13;;;;;;;9.18;90.83;99980.41;5070775;28;20174;-75
2022/01/03 04:04:40;;;;;;;0.80;0.73;;;;;;;9.19;90.65;99984.75;5070687;28;20532;-75
2022/01/03 04:07:07;;;;;;;6.13;0.93;;;;;;;9.18;90.18;99966.78;5070490;28;20600;-75
2022/01/03 04:09:32;;;;;;;1.07;0.53;;;;;;;9.20;90.51;99981.69;5070806;28;20177;-75
2022/01/03 04:11:58;;;;;;;0.73;0.73;;;;;;;9.23;89.66;99961.97;5070612;28;20178;-75
2022/01/03 04:14:23;;;;;;;1.50;0.70;;;;;;;9.16;90.70;99967.09;5070472;28;20697;-74
2022/01/03 04:16:49;;;;;;;1.73;1.07;;;;;;;9.17;90.58;99973.34;5070422;28;20178;-75
2022/01/03 04:19:14;;;;;;;3.80;1.00;;;;;;;9.17;90.50;99976.09;5070521;28;20623;-74
2022/01/03 04:21:40;;;;;;;2.20;1.33;;;;;;;9.15;91.18;99975.59;5070565;28;20177;-75
2022/01/03 04:24:08;;;;;;;0.63;0.30;;;;;;;9.12;92.01;99976.22;5070455;28;20190;-75
2022/01/03 04:26:34;;;;;;;2.47;2.00;;;;;;;9.10;92.34;99975.72;5070362;28;20541;-74
2022/01/03 04:29:00;;;;;;;3.00;0.50;;;;;;;9.11;91.91;99985.50;5070450;28;20209;-75
2022/01/03 04:31:25;;;;;;;3.20;0.93;;;;;;;9.10;92.37;99989.34;5070499;28;20648;-74
2022/01/03 04:33:51;;;;;;;10.20;0.90;;;;;;;9.07;92.75;99984.50;5070374;28;20279;-75
2022/01/03 04:36:16;;;;;;;2.63;2.17;;;;;;;9.04;93.64;99974.25;5070348;28;20167;-74
2022/01/03 04:38:42;;;;;;;1.17;0.77;;;;;;;9.04;93.34;99966.06;5070391;28;20179;-74
2022/01/03 04:41:09;;;;;;;6.80;1.77;;;;;;;8.96;94.10;99978.50;5070380;28;20174;-74
2022/01/03 04:43:34;;;;;;;1.70;1.60;;;;;;;8.95;94.21;99982.34;5070216;28;20170;-74
2022/01/03 04:46:00;;;;;;;5.53;2.83;;;;;;;8.96;95.00;99978.50;5070169;28;20645;-74
2022/01/03 04:48:25;;;;;;;0.63;0.63;;;;;;;8.94;95.93;99976.09;5070403;28;20254;-74
2022/01/03 04:50:51;;;;;;;4.70;0.73;;;;;;;8.95;95.80;99969.53;5070254;28;20198;-75
2022/01/03 04:53:16;;;;;;;4.10;0.77;;;;;;;8.92;95.98;99980.25;5070156;28;20297;-74
2022/01/03 04:55:41;;;;;;;0.50;0.50;;;;;;;8.89;96.49;99968.06;5071933;28;20196;-75
2022/01/03 04:58:09;;;;;;;0.60;0.60;;;;;;;8.84;97.03;99986.47;5074118;28;20194;-74
2022/01/03 05:00:34;;;;;;;0.33;0.17;;;;;;;8.86;97.23;99973.34;5073806;28;20179;-74
2022/01/03 05:02:59;;;;;;;0.40;0.40;;;;;;;8.85;97.08;99974.47;5074114;28;20179;-74
2022/01/03 05:05:25;;;;;;;0.73;0.67;;;;;;;8.89;96.36;99961.81;5073834;28;20227;-74
2022/01/03 05:07:50;;;;;;;1.80;1.07;;;;;;;8.92;96.41;99988.44;5074040;28;20514;-74
2022/01/03 05:10:15;;;;;;;3.30;0.80;;;;;;;8.92;96.87;99977.53;5072540;28;20174;-74
2022/01/03 05:12:41;;;;;;;1.90;1.07;;;;;;;8.87;97.30;99986.66;5073738;28;20206;-73
2022/01/03 05:15:06;;;;;;;0.20;0.20;;;;;;;8.85;97.74;99969.81;5074000;28;20258;-75
2022/01/03 05:17:32;;;;;;;3.87;1.60;;;;;;;8.86;97.63;99979.59;5072397;28;20232;-74
2022/01/03 05:19:58;;;;;;;2.73;1.10;;;;;;;8.85;98.08;99988.88;5073759;28;20179;-74
2022/01/03 05:22:24;;;;;;;1.30;1.03;;;;;;;8.82;98.83;99978.59;5073533;28;20202;-75
2022/01/03 05:24:49;;;;;;;4.90;2.00;;;;;;;8.84;98.84;99992.72;5073536;28;20243;-74
2022/01/03 05:27:14;;;;;;;2.63;1.33;;;;;;;8.75;100.00;99986.41;5072235;28;20181;-75
2022/01/03 05:29:40;;;;;;;7.70;1.10;;;;;;;8.69;100.00;100004.00;5073505;28;20266;-75
2022/01/03 05:32:06;;;;;;;11.33;1.30;;;;;;;8.71;100.00;100003.69;5073533;28;20197;-73
2022/01/03 05:34:31;;;;;;;0.90;0.83;;;;;;;8.69;100.00;100004.00;5073604;28;20205;-74
2022/01/03 05:36:56;;;;;;;6.80;1.90;;;;;;;8.72;100.00;100005.31;5073112;28;20582;-75
2022/01/03 05:39:22;;;;;;;4.00;1.13;;;;;;;8.75;100.00;99997.31;5072023;28;20170;-75
2022/01/03 05:41:47;;;;;;;0.53;0.53;;;;;;;8.77;100.00;100005.97;5071928;28;20277;-75
2022/01/03 05:44:12;;;;;;;3.53;1.93;;;;;;;8.74;100.00;99994.91;5073304;28;20639;-75
2022/01/03 05:46:38;;;;;;;14.33;1.03;;;;;;;8.71;100.00;99981.91;5073395;28;20785;-73
2022/01/03 05:49:06;;;;;;;0.30;0.30;;;;;;;8.68;100.00;99993.41;5073277;28;20205;-73
2022/01/03 05:51:31;;;;;;;12.27;2.03;;;;;;;8.68;100.00;99994.22;5073188;28;20170;-74
2022/01/03 05:53:57;;;;;;;1.63;1.53;;;;;;;8.65;100.00;100008.44;5073069;28;20206;-74
2022/01/03 05:56:22;;;;;;;2.20;1.27;;;;;;;8.71;100.00;100009.13;5072845;28;20176;-75
2022/01/03 05:58:47;;;;;;;8.07;2.50;;;;;;;8.75;99.40;99997.31;5073029;28;20254;-75
2022/01/03 06:01:13;;;;;;;7.70;2.60;;;;;;;8.79;98.50;100000.22;5072896;28;20175;-74
2022/01/03 06:03:39;;;;;;;2.63;1.00;;;;;;;8.77;98.57;99999.72;5072912;28;20170;-74
2022/01/03 06:08:31;;;;;;;8.30;1.03;;;;;;;8.77;98.68;99994.28;5073186;28;20174;-74
2022/01/03 06:10:58;;;;;;;0.67;0.43;;;;;;;8.77;98.88;100005.97;5071605;28;20181;-74
2022/01/03 06:13:23;;;;;;;4.43;0.97;;;;;;;8.78;99.30;100001.31;5072675;28;20698;-74
2022/01/03 06:15:49;;;;;;;4.13;2.27;;;;;;;8.80;99.30;100004.53;5072485;28;20253;-73
2022/01/03 06:18:16;;;;;;;1.67;1.60;;;;;;;8.71;100.00;100004.50;5072684;28;20181;-74
2022/01/03 06:20:43;;;;;;;1.23;0.60;;;;;;;8.67;100.00;100002.69;5072557;28;20198;-74
2022/01/03 06:23:10;;;;;;;3.87;2.30;;;;;;;8.62;100.00;100003.63;5072712;28;20694;-75
2022/01/03 06:25:36;;;;;;;4.13;0.97;;;;;;;8.59;100.00;100004.25;5072380;28;20204;-75
2022/01/03 06:28:06;;;;;;;1.93;1.73;;;;;;;8.63;100.00;100016.13;5072445;28;20189;-75
2022/01/03 06:30:36;;;;;;;22.87;2.53;;;;;;;8.65;100.00;100001.06;5072597;28;20159;-75
2022/01/03 06:33:02;;;;;;;0.63;0.63;;;;;;;8.71;100.00;100014.59;5072184;28;20206;-74
2022/01/03 06:35:28;;;;;;;4.10;0.80;;;;;;;8.76;100.00;100007.09;5072188;28;20167;-75
2022/01/03 06:37:53;;;;;;;1.00;0.30;;;;;;;8.78;99.52;100020.38;5071422;28;20174;-75
2022/01/03 06:40:18;;;;;;;1.73;1.63;;;;;;;8.78;98.93;100012.22;5072548;28;20167;-74
2022/01/03 06:42:44;;;;;;;2.17;1.40;;;;;;;8.79;98.51;100022.00;5072176;28;20182;-74
2022/01/03 06:45:09;;;;;;;1.87;1.30;;;;;;;8.82;98.32;100022.19;5072082;28;20421;-75
2022/01/03 06:47:35;;;;;;;0.97;0.80;;;;;;;8.81;98.26;100015.13;5072043;28;20220;-74
2022/01/03 06:50:00;;;;;;;7.83;2.23;;;;;;;8.80;98.18;100021.69;5072122;28;20170;-74
2022/01/03 06:52:26;;;;;;;1.87;0.53;;;;;;;8.81;97.57;100022.50;5071934;28;20186;-74
2022/01/03 06:54:51;;;;;;;2.83;1.47;;;;;;;8.80;98.11;100024.41;5070531;28;20174;-74
2022/01/03 06:57:16;;;;;;;6.93;1.50;;;;;;;8.76;98.56;100017.97;5071928;28;20186;-75
2022/01/03 06:59:42;;;;;;;1.60;0.83;;;;;;;8.79;97.83;100033.69;5072057;28;20198;-74
2022/01/03 07:02:07;;;;;;;3.83;1.97;;;;;;;8.84;98.06;100027.34;5072470;28;20537;-74
2022/01/03 07:04:33;;;;;;;1.53;1.30;;;;;;;8.87;97.48;100024.00;5072703;28;20675;-73
2022/01/03 07:06:58;;;;;;;2.40;0.77;;;;;;;8.86;97.38;100044.97;5072477;28;20187;-74
2022/01/03 07:09:24;;;;;;;2.67;1.37;;;;;;;8.88;96.72;100053.66;5072465;28;20197;-73
2022/01/03 07:11:49;;;;;;;5.60;2.87;;;;;;;8.88;96.50;100042.75;5072015;28;20182;-74
2022/01/03 07:19:39;;;;;;;0.83;0.83;;;;;;;8.92;96.01;100059.28;5071915;28;20182;-74
2022/01/03 07:22:08;;;;;;;0.87;0.57;;;;;;;8.93;95.87;100061.69;5072078;28;20167;-74
2022/01/03 07:24:35;;;;;;;2.93;1.37;;;;;;;8.92;96.21;100057.34;5071673;28;20186;-74
2022/01/03 07:27:05;;;;;;;11.00;1.97;;;;;;;8.90;95.93;100051.41;5072506;28;20527;-75
2022/01/03 07:29:30;;;;;;;2.97;1.80;;;;;;;8.85;96.39;100039.84;5072149;28;20170;-74
2022/01/03 07:31:56;;;;;;;3.07;1.00;;;;;;;8.84;96.45;100043.69;5071678;28;20181;-74
2022/01/03 07:34:22;;;;;;;10.10;2.53;;;;;;;8.82;96.69;100046.69;5072020;28;20234;-74
2022/01/03 07:36:47;;;;;;;5.77;1.50;;;;;;;8.82;96.47;100057.59;5071808;28;20179;-74
2022/01/03 07:39:12;;;;;;;2.80;2.10;;;;;;;8.88;95.96;100061.81;5071433;28;20410;-73
2022/01/03 07:41:38;;;;;;;0.63;0.63;;;;;;;8.88;95.92;100042.75;5072110;28;20183;-74
2022/01/03 07:44:03;;;;;;;6.53;1.60;;;;;;;8.83;96.08;100051.06;5072679;28;20175;-74
2022/01/03 07:46:29;;;;;;;1.43;1.33;;;;;;;8.81;95.99;100060.63;5071665;28;20603;-74
2022/01/03 07:48:54;;;;;;;1.07;0.90;;;;;;;8.80;96.69;100056.28;5072067;28;20173;-73
2022/01/03 07:51:19;;;;;;;3.77;1.80;;;;;;;8.79;96.35;100050.03;5072233;28;20169;-74
2022/01/03 07:53:45;;;;;;;2.30;1.87;;;;;;;8.80;95.62;100054.38;5071918;28;20202;-74
2022/01/03 07:56:10;;;;;;;7.10;1.33;;;;;;;8.83;95.89;100055.69;5071198;28;20236;-74
2022/01/03 07:58:37;;;;;;;3.00;1.80;;;;;;;8.85;95.53;100054.28;5072253;28;20175;-74
2022/01/03 08:01:06;;;;;;;12.93;4.30;;;;;;;8.91;93.80;100054.94;5074128;28;20610;-74
2022/01/03 08:03:31;;;;;;;5.10;3.33;;;;;;;8.92;94.06;100053.81;5081366;28;20167;-75
2022/01/03 08:05:57;;;;;;;2.40;1.50;;;;;;;8.89;94.73;100055.25;5072570;28;20181;-75
2022/01/03 08:08:23;;;;;;;6.33;2.57;;;;;;;8.91;93.99;100063.09;5071266;28;20258;-74
2022/01/03 08:10:49;;;;;;;1.80;1.13;;;;;;;8.90;93.82;100045.97;5071172;28;20175;-75
2022/01/03 08:13:14;;;;;;;1.53;0.93;;;;;;;8.91;93.18;100055.75;5069467;28;20213;-74
2022/01/03 08:15:40;;;;;;;0.67;0.67;;;;;;;8.91;93.55;100058.47;5070992;28;20171;-75
2022/01/03 08:18:06;;;;;;;2.40;1.00;;;;;;;8.91;93.47;100047.56;5069361;28;20174;-82
2022/01/03 08:20:31;;;;;;;0.70;0.70;;;;;;;9.00;91.86;100044.13;5070759;28;20269;-74
2022/01/03 08:22:57;;;;;;;0.77;0.30;;;;;;;9.02;91.74;100063.69;5070693;28;20208;-74
2022/01/03 08:25:22;;;;;;;0.67;0.67;;;;;;;9.03;91.83;100065.28;5070495;28;20170;-74
2022/01/03 08:27:48;;;;;;;2.23;1.43;;;;;;;9.04;91.80;100064.16;5070562;28;20174;-75
2022/01/03 08:30:13;;;;;;;4.27;2.20;;;;;;;9.09;90.77;100056.66;5073653;28;20170;-74
2022/01/03 08:32:39;;;;;;;18.27;1.23;;;;;;;9.11;90.36;100054.44;5074888;28;20171;-74
2022/01/03 08:35:05;;;;;;;2.27;2.00;;;;;;;9.10;90.64;100044.63;5074638;28;20174;-74
2022/01/03 08:37:30;;;;;;;3.87;2.53;;;;;;;9.11;90.79;100040.00;5074524;28;20510;-74
2022/01/03 08:39:56;;;;;;;4.60;1.53;;;;;;;9.15;89.41;100047.25;5074812;28;20170;-75
2022/01/03 08:42:23;;;;;;;0.93;0.70;;;;;;;9.15;89.93;100046.44;5074458;28;20166;-74
2022/01/03 08:44:48;;;;;;;8.40;2.63;;;;;;;9.11;89.90;100046.28;5074425;28;20554;-75
2022/01/03 08:47:14;;;;;;;4.63;0.80;;;;;;;9.12;89.59;100050.59;5074439;28;20180;-75
2022/01/03 08:49:39;;;;;;;13.03;1.80;;;;;;;9.09;89.24;100048.47;5074394;28;20174;-74
2022/01/03 08:52:05;;;;;;;1.40;0.87;;;;;;;9.17;88.25;100053.19;5072924;28;20175;-75
2022/01/03 08:54:31;;;;;;;1.47;1.37;;;;;;;9.19;88.00;100045.50;5074393;28;20210;-74
2022/01/03 08:56:56;;;;;;;1.93;1.10;;;;;;;9.27;87.17;100049.41;5074026;28;20178;-74
2022/01/03 08:59:22;;;;;;;5.03;1.37;;;;;;;9.27;87.47;100048.63;5074112;28;20178;-76
2022/01/03 09:01:48;;;;;;;2.03;0.60;;;;;;;9.22;88.02;100035.91;5072905;28;20329;-75
2022/01/03 09:04:13;;;;;;;3.90;1.40;;;;;;;9.18;88.52;100041.16;5073985;28;20170;-75
2022/01/03 09:06:39;;;;;;;1.63;1.53;;;;;;;9.20;88.73;100036.22;5073866;28;20202;-75
2022/01/03 09:09:06;;;;;;;0.83;0.83;;;;;;;9.24;88.24;100042.63;5072634;28;20166;-75
2022/01/03 09:11:31;;;;;;;1.03;0.80;;;;;;;9.28;87.83;100042.03;5073964;28;20171;-75
2022/01/03 09:13:57;;;;;;;8.40;2.07;;;;;;;9.30;87.60;100037.06;5073828;28;20204;-75
2022/01/03 09:16:22;;;;;;;9.17;1.03;;;;;;;9.29;87.62;100047.19;5073655;28;20175;-74
2022/01/03 09:18:48;;;;;;;5.33;1.63;;;;;;;9.28;87.71;100058.41;5073593;28;20246;-76
2022/01/03 09:21:13;;;;;;;3.13;2.83;;;;;;;9.25;87.59;100035.25;5073685;28;20339;-75
2022/01/03 09:23:40;;;;;;;0.43;0.40;;;;;;;9.25;88.12;100046.97;5073744;28;20210;-75
2022/01/03 09:28:53;;;;;;;8.93;1.50;;;;;;;9.32;88.05;100045.75;5073958;28;20166;-75
2022/01/03 09:31:28;;;;;;;2.00;1.27;;;;;;;9.32;88.35;100049.28;5073467;28;20175;-75
2022/01/03 09:33:55;;;;;;;1.50;1.03;;;;;;;9.30;88.19;100042.53;5073403;28;20211;-75
2022/01/03 09:36:22;;;;;;;2.07;1.87;;;;;;;9.31;88.03;100046.88;5073609;28;20219;-75
2022/01/03 09:38:47;;;;;;;8.10;1.43;;;;;;;9.34;87.82;100040.78;5073401;28;20205;-75
2022/01/03 09:41:14;;;;;;;3.30;1.30;;;;;;;9.29;88.29;100039.00;5072158;28;20218;-76
2022/01/03 09:44:03;;;;;;;0.70;0.70;;;;;;;9.24;88.55;100039.09;5073084;28;20376;-75
2022/01/03 09:46:34;;;;;;;3.87;2.00;;;;;;;9.25;87.12;100036.06;5072704;28;20174;-75
2022/01/03 09:48:59;;;;;;;1.17;1.17;;;;;;;9.29;87.00;100038.19;5071992;28;20695;-75
2022/01/03 09:51:27;;;;;;;1.17;0.77;;;;;;;9.32;87.65;100045.75;5072018;28;20183;-74
2022/01/03 09:53:55;;;;;;;1.13;1.10;;;;;;;9.29;87.77;100039.00;5070941;28;20210;-75
2022/01/03 09:56:22;;;;;;;5.77;1.93;;;;;;;9.26;87.68;100020.53;5071222;28;20206;-86
2022/01/03 09:58:48;;;;;;;2.20;1.50;;;;;;;9.26;87.24;100020.53;5072241;28;20501;-81
2022/01/03 10:01:14;;;;;;;2.70;2.47;;;;;;;9.30;87.20;100026.16;5071184;28;20178;-76
2022/01/03 10:03:47;;;;;;;3.40;1.33;;;;;;;9.35;87.32;100013.19;5071814;28;20171;-73
2022/01/03 10:06:12;;;;;;;0.80;0.80;;;;;;;9.43;87.18;100019.81;5071243;28;20221;-74
2022/01/03 10:08:37;;;;;;;0.70;0.70;;;;;;;9.50;87.03;100031.06;5071440;28;20286;-73
2022/01/03 10:11:03;;;;;;;4.77;1.60;;;;;;;9.54;86.80;100026.59;5071655;28;20193;-77
2022/01/03 10:13:28;;;;;;;1.73;1.63;;;;;;;9.58;86.88;100016.69;5071490;28;20276;-78
2022/01/03 10:15:53;;;;;;;2.87;2.17;;;;;;;9.63;86.45;100004.81;5071597;28;20236;-76
2022/01/03 10:18:20;;;;;;;5.07;1.03;;;;;;;9.70;85.70;100027.78;5072185;28;20175;-73
2022/01/03 10:20:47;;;;;;;2.07;1.70;;;;;;;9.72;85.55;100025.56;5073219;28;20577;-76
2022/01/03 10:23:15;;;;;;;2.77;2.00;;;;;;;9.74;86.10;100020.59;5071209;28;20190;-75
2022/01/03 10:25:41;;;;;;;4.83;2.37;;;;;;;9.73;86.14;100027.16;5072360;28;20174;-76
2022/01/03 10:28:07;;;;;;;0.40;0.40;;;;;;;9.73;86.41;100007.25;5072513;28;20229;-75
2022/01/03 10:30:38;;;;;;;6.23;2.93;;;;;;;9.70;86.72;100003.25;5072458;28;20179;-75
2022/01/03 10:33:06;;;;;;;0.67;0.67;;;;;;;9.70;85.85;99992.34;5073023;28;20202;-76
2022/01/03 10:35:41;;;;;;;3.23;2.20;;;;;;;9.72;86.40;99992.81;5072096;28;20642;-75
2022/01/03 10:38:08;;;;;;;1.30;1.10;;;;;;;9.74;85.89;100000.69;5072661;28;20212;-76
2022/01/03 10:40:33;;;;;;;4.10;1.97;;;;;;;9.71;86.64;100002.13;5072246;28;20191;-76
2022/01/03 10:43:19;;;;;;;1.40;1.23;;;;;;;9.67;87.15;99990.22;5072286;28;20312;-75
2022/01/03 10:45:46;;;;;;;4.60;2.47;;;;;;;9.69;87.42;99982.53;5071941;28;20166;-75
2022/01/03 10:48:32;;;;;;;2.03;0.90;;;;;;;9.75;85.86;99996.84;5072069;28;20220;-76
2022/01/03 10:51:00;;;;;;;7.30;0.90;;;;;;;9.78;85.92;99988.00;5072363;28;20236;-76
2022/01/03 10:53:40;;;;;;;2.43;1.33;;;;;;;9.78;85.86;99996.19;5071139;28;20199;-76
2022/01/03 10:56:23;;;;;;;5.40;2.53;;;;;;;9.76;85.68;99987.53;5071666;28;20185;-75
2022/01/03 10:58:49;;;;;;;1.37;1.27;;;;;;;9.79;87.04;99989.63;5071493;28;20181;-76
2022/01/03 11:01:26;;;;;;;5.63;1.10;;;;;;;9.85;85.56;99985.63;5066808;28;20183;-75
2022/01/03 11:03:54;;;;;;;2.30;2.10;;;;;;;9.94;85.67;99983.72;5068288;28;20193;-75
2022/01/03 11:06:35;;;;;;;1.57;1.47;;;;;;;9.94;85.76;99972.00;5071321;28;20702;-76
2022/01/03 11:11:51;;;;;;;0.70;0.63;;;;;;;9.78;85.79;99993.47;5071747;28;20585;-76
2022/01/03 11:14:42;;;;;;;1.17;1.07;;;;;;;9.86;86.07;99979.06;5071585;28;20555;-76
2022/01/03 11:17:28;;;;;;;3.90;1.67;;;;;;;9.99;85.32;99978.13;5071529;28;20173;-75
2022/01/03 11:19:57;;;;;;;5.20;1.00;;;;;;;10.06;84.86;99981.16;5069408;28;20224;-78
2022/01/03 11:22:41;;;;;;;5.70;1.10;;;;;;;10.16;85.08;99977.34;5069370;28;20405;-77
2022/01/03 11:25:07;;;;;;;9.30;2.00;;;;;;;10.18;84.95;99979.75;5071136;28;20893;-76
2022/01/03 11:27:38;;;;;;;0.73;0.73;;;;;;;10.19;83.70;99964.97;5071148;28;20258;-76
2022/01/03 11:30:04;;;;;;;4.63;1.40;;;;;;;10.14;83.90;99955.81;5071451;28;20272;-76
2022/01/03 11:32:30;;;;;;;9.13;2.63;;;;;;;10.13;84.10;99972.53;5071113;28;20177;-76
2022/01/03 11:34:56;;;;;;;1.53;1.00;;;;;;;10.04;84.13;99956.13;5069204;28;20195;-76
2022/01/03 11:37:22;;;;;;;0.63;0.63;;;;;;;10.02;83.76;99954.84;5070688;28;20174;-76
2022/01/03 11:39:49;;;;;;;1.73;1.63;;;;;;;9.94;84.69;99939.25;5071028;28;20178;-77
2022/01/03 11:42:16;;;;;;;0.90;0.50;;;;;;;9.94;84.98;99950.16;5070926;28;20309;-77
2022/01/03 11:44:42;;;;;;;3.07;2.07;;;;;;;9.93;85.25;99941.16;5070691;28;20194;-77
2022/01/03 11:47:11;;;;;;;1.00;0.97;;;;;;;9.91;85.37;99943.41;5070784;28;20539;-77
2022/01/03 11:49:37;;;;;;;2.23;2.03;;;;;;;9.91;85.89;99921.59;5071088;28;20171;-77
2022/01/03 11:52:09;;;;;;;1.10;0.90;;;;;;;9.88;86.46;99933.16;5070915;28;20177;-79
2022/01/03 11:54:35;;;;;;;1.27;0.43;;;;;;;9.80;87.17;99926.53;5069142;28;20487;-77